createdAt,value
2019-04-01T00:00:09.065Z,5.69
2019-04-01T00:01:09.056Z,5.68
2019-04-01T00:02:09.067Z,5.65
2019-04-01T00:03:09.033Z,5.66
2019-04-01T00:04:09.022Z,5.64
2019-04-01T00:05:09.012Z,5.65
2019-04-01T00:06:09.002Z,5.63
2019-04-01T00:07:08.992Z,5.61
2019-04-01T00:08:08.991Z,5.60
2019-04-01T00:09:08.970Z,5.59
2019-04-01T00:10:08.960Z,5.61
2019-04-01T00:11:08.951Z,5.59
2019-04-01T00:12:08.939Z,5.58
2019-04-01T00:13:08.932Z,5.59
2019-04-01T00:14:08.933Z,5.57
2019-04-01T00:15:08.909Z,5.55
2019-04-01T00:16:08.898Z,5.52
2019-04-01T00:17:08.893Z,5.54
2019-04-01T00:18:08.877Z,5.52
2019-04-01T00:19:08.867Z,5.52
2019-04-01T00:20:08.867Z,5.52
2019-04-01T00:21:08.845Z,5.52
2019-04-01T00:22:08.838Z,5.53
2019-04-01T00:23:09.022Z,5.51
2019-04-01T00:24:08.815Z,5.51
2019-04-01T00:25:08.808Z,5.49
2019-04-01T00:26:08.806Z,5.49
2019-04-01T00:27:08.782Z,5.48
2019-04-01T00:28:08.775Z,5.47
2019-04-01T00:29:08.762Z,5.47
2019-04-01T00:30:08.751Z,5.46
2019-04-01T00:31:08.741Z,5.45
2019-04-01T00:32:08.741Z,5.47
2019-04-01T00:33:08.721Z,5.45
2019-04-01T00:34:08.709Z,5.44
2019-04-01T00:35:08.702Z,5.43
2019-04-01T00:36:08.692Z,5.43
2019-04-01T00:37:08.682Z,5.41
2019-04-01T00:38:08.681Z,5.41
2019-04-01T00:39:08.710Z,5.39
2019-04-01T00:40:08.650Z,5.40
2019-04-01T00:41:08.637Z,5.38
2019-04-01T00:42:08.629Z,5.39
2019-04-01T00:43:08.616Z,5.39
2019-04-01T00:44:08.618Z,5.37
2019-04-01T00:45:08.594Z,5.37
2019-04-01T00:46:08.587Z,5.37
2019-04-01T00:47:08.573Z,5.35
2019-04-01T00:48:08.562Z,5.35
2019-04-01T00:49:08.551Z,5.36
2019-04-01T00:50:08.555Z,5.34
2019-04-01T00:51:08.533Z,5.33
2019-04-01T00:52:08.521Z,5.32
2019-04-01T00:53:08.510Z,5.31
2019-04-01T00:54:08.500Z,5.30
2019-04-01T00:55:08.491Z,5.29
2019-04-01T00:56:08.489Z,5.28
2019-04-01T00:57:08.469Z,5.26
2019-04-01T00:58:08.461Z,5.24
2019-04-01T00:59:08.449Z,5.23
2019-04-01T01:00:08.437Z,5.22
2019-04-01T01:01:08.467Z,5.19
2019-04-01T01:02:08.427Z,5.19
2019-04-01T01:03:08.406Z,5.18
2019-04-01T01:04:08.396Z,5.17
2019-04-01T01:05:08.386Z,5.16
2019-04-01T01:06:08.376Z,5.14
2019-04-01T01:07:08.368Z,5.13
2019-04-01T01:08:08.376Z,5.11
2019-04-01T01:09:08.347Z,5.09
2019-04-01T01:10:08.334Z,5.08
2019-04-01T01:11:08.324Z,5.08
2019-04-01T01:12:08.313Z,5.08
2019-04-01T01:13:08.301Z,5.05
2019-04-01T01:14:08.309Z,5.04
2019-04-01T01:15:08.282Z,5.01
2019-04-01T01:16:08.270Z,5.00
2019-04-01T01:17:08.266Z,4.98
2019-04-01T01:18:08.250Z,5.00
2019-04-01T01:19:08.245Z,5.00
2019-04-01T01:20:08.242Z,5.00
2019-04-01T01:21:08.217Z,5.00
2019-04-01T01:22:08.207Z,5.01
2019-04-01T01:23:08.196Z,5.00
2019-04-01T01:24:08.186Z,5.03
2019-04-01T01:25:08.176Z,5.01
2019-04-01T01:26:08.176Z,4.99
2019-04-01T01:27:08.158Z,4.99
2019-04-01T01:28:08.145Z,4.98
2019-04-01T01:29:08.139Z,4.98
2019-04-01T01:30:08.123Z,4.97
2019-04-01T01:31:08.113Z,4.97
2019-04-01T01:32:08.115Z,4.96
2019-04-01T01:33:08.091Z,4.96
2019-04-01T01:34:08.081Z,4.96
2019-04-01T01:35:08.071Z,4.94
2019-04-01T01:36:08.060Z,4.95
2019-04-01T01:37:08.050Z,4.93
2019-04-01T01:38:08.051Z,4.93
2019-04-01T01:39:08.028Z,4.91
2019-04-01T01:40:08.019Z,4.90
2019-04-01T01:41:08.007Z,4.89
2019-04-01T01:42:07.998Z,4.89
2019-04-01T01:43:07.997Z,4.87
2019-04-01T01:44:07.989Z,4.87
2019-04-01T01:45:07.965Z,4.88
2019-04-01T01:46:07.955Z,4.86
2019-04-01T01:47:07.944Z,4.86
2019-04-01T01:48:07.934Z,4.86
2019-04-01T01:49:07.923Z,4.85
2019-04-01T01:50:07.932Z,4.85
2019-04-01T01:51:07.901Z,4.84
2019-04-01T01:52:07.892Z,4.83
2019-04-01T01:53:07.880Z,4.82
2019-04-01T01:54:07.873Z,4.82
2019-04-01T01:55:07.858Z,4.82
2019-04-01T01:56:07.862Z,4.82
2019-04-01T01:57:07.838Z,4.81
2019-04-01T01:58:07.835Z,4.80
2019-04-01T01:59:07.816Z,4.78
2019-04-01T02:00:07.804Z,4.78
2019-04-01T02:01:07.794Z,4.77
2019-04-01T02:02:07.799Z,4.75
2019-04-01T02:03:07.773Z,4.74
2019-04-01T02:04:07.766Z,4.74
2019-04-01T02:05:07.751Z,4.73
2019-04-01T02:06:07.740Z,4.71
2019-04-01T02:07:07.730Z,4.70
2019-04-01T02:08:07.730Z,4.69
2019-04-01T02:09:07.708Z,4.69
2019-04-01T02:10:07.698Z,4.66
2019-04-01T02:11:07.687Z,4.65
2019-04-01T02:12:07.677Z,4.65
2019-04-01T02:13:07.671Z,4.63
2019-04-01T02:14:07.672Z,4.63
2019-04-01T02:15:07.645Z,4.62
2019-04-01T02:16:07.634Z,4.61
2019-04-01T02:17:07.626Z,4.59
2019-04-01T02:18:07.613Z,4.59
2019-04-01T02:19:07.608Z,4.57
2019-04-01T02:20:07.614Z,4.56
2019-04-01T02:21:07.582Z,4.55
2019-04-01T02:22:07.569Z,4.55
2019-04-01T02:23:07.559Z,4.53
2019-04-01T02:24:07.553Z,4.51
2019-04-01T02:25:07.536Z,4.52
2019-04-01T02:26:07.536Z,4.51
2019-04-01T02:27:07.516Z,4.50
2019-04-01T02:28:07.503Z,4.50
2019-04-01T02:29:07.493Z,4.49
2019-04-01T02:30:07.483Z,4.47
2019-04-01T02:31:07.472Z,4.46
2019-04-01T02:32:07.472Z,4.45
2019-04-01T02:33:07.451Z,4.43
2019-04-01T02:34:07.441Z,4.43
2019-04-01T02:35:07.429Z,4.43
2019-04-01T02:36:07.418Z,4.43
2019-04-01T02:37:07.410Z,4.41
2019-04-01T02:38:07.408Z,4.40
2019-04-01T02:39:07.393Z,4.39
2019-04-01T02:40:07.376Z,4.38
2019-04-01T02:41:07.366Z,4.37
2019-04-01T02:42:07.386Z,4.38
2019-04-01T02:43:07.342Z,4.35
2019-04-01T02:44:07.344Z,4.35
2019-04-01T02:45:07.321Z,4.35
2019-04-01T02:46:07.316Z,4.33
2019-04-01T02:47:07.301Z,4.33
2019-04-01T02:48:07.290Z,4.32
2019-04-01T02:49:07.280Z,4.31
2019-04-01T02:50:07.286Z,4.30
2019-04-01T02:51:07.267Z,4.29
2019-04-01T02:52:07.250Z,4.27
2019-04-01T02:53:07.238Z,4.26
2019-04-01T02:54:07.226Z,4.25
2019-04-01T02:55:07.553Z,4.25
2019-04-01T02:56:07.224Z,4.24
2019-04-01T02:57:07.195Z,4.23
2019-04-01T02:58:07.184Z,4.23
2019-04-01T02:59:07.172Z,4.22
2019-04-01T03:00:07.176Z,4.21
2019-04-01T03:01:07.153Z,4.22
2019-04-01T03:02:07.152Z,4.22
2019-04-01T03:03:07.131Z,4.21
2019-04-01T03:04:07.122Z,4.22
2019-04-01T03:05:07.111Z,4.22
2019-04-01T03:06:07.112Z,4.21
2019-04-01T03:07:07.097Z,4.22
2019-04-01T03:08:07.097Z,4.21
2019-04-01T03:09:07.070Z,4.20
2019-04-01T03:10:07.058Z,4.20
2019-04-01T03:11:10.340Z,4.20
2019-04-01T03:12:07.039Z,4.19
2019-04-01T03:13:07.028Z,4.18
2019-04-01T03:14:07.038Z,4.17
2019-04-01T03:15:07.017Z,4.17
2019-04-01T03:16:06.996Z,4.16
2019-04-01T03:17:06.988Z,4.15
2019-04-01T03:18:06.976Z,4.15
2019-04-01T03:19:06.966Z,4.13
2019-04-01T03:20:06.964Z,4.12
2019-04-01T03:21:06.944Z,4.11
2019-04-01T03:22:06.934Z,4.10
2019-04-01T03:23:06.922Z,4.10
2019-04-01T03:24:06.912Z,4.08
2019-04-01T03:25:06.901Z,4.07
2019-04-01T03:26:06.904Z,4.06
2019-04-01T03:27:06.881Z,4.06
2019-04-01T03:28:06.870Z,4.04
2019-04-01T03:29:06.861Z,4.03
2019-04-01T03:30:06.854Z,4.01
2019-04-01T03:31:06.839Z,4.01
2019-04-01T03:32:06.900Z,4.01
2019-04-01T03:33:06.830Z,3.99
2019-04-01T03:34:06.809Z,3.99
2019-04-01T03:35:06.798Z,3.99
2019-04-01T03:36:06.788Z,3.98
2019-04-01T03:37:06.777Z,3.97
2019-04-01T03:38:06.779Z,3.96
2019-04-01T03:39:06.762Z,3.94
2019-04-01T03:40:06.746Z,3.94
2019-04-01T03:41:06.738Z,3.93
2019-04-01T03:42:06.726Z,3.91
2019-04-01T03:43:06.729Z,3.91
2019-04-01T03:44:06.715Z,3.88
2019-04-01T03:45:06.714Z,3.88
2019-04-01T03:46:06.688Z,3.88
2019-04-01T03:47:06.683Z,3.87
2019-04-01T03:48:06.662Z,3.85
2019-04-01T03:49:06.752Z,3.85
2019-04-01T03:50:06.685Z,3.82
2019-04-01T03:51:06.637Z,3.82
2019-04-01T03:52:10.254Z,3.80
2019-04-01T03:53:06.615Z,3.78
2019-04-01T03:54:06.601Z,3.78
2019-04-01T03:55:06.592Z,3.76
2019-04-01T03:56:06.593Z,3.74
2019-04-01T03:57:06.577Z,3.73
2019-04-01T03:58:06.579Z,3.73
2019-04-01T03:59:06.556Z,3.71
2019-04-01T04:00:06.539Z,3.70
2019-04-01T04:01:06.530Z,3.69
2019-04-01T04:02:06.537Z,3.69
2019-04-01T04:03:06.508Z,3.67
2019-04-01T04:04:06.498Z,3.66
2019-04-01T04:05:06.488Z,3.65
2019-04-01T04:06:06.477Z,3.64
2019-04-01T04:07:06.468Z,3.64
2019-04-01T04:08:06.465Z,3.64
2019-04-01T04:09:06.446Z,3.63
2019-04-01T04:10:06.435Z,3.61
2019-04-01T04:11:06.434Z,3.61
2019-04-01T04:12:06.423Z,3.58
2019-04-01T04:13:06.405Z,3.58
2019-04-01T04:14:06.405Z,3.56
2019-04-01T04:15:06.408Z,3.56
2019-04-01T04:16:06.377Z,3.56
2019-04-01T04:17:06.364Z,3.53
2019-04-01T04:18:06.353Z,3.53
2019-04-01T04:19:06.364Z,3.52
2019-04-01T04:20:06.367Z,3.52
2019-04-01T04:21:06.326Z,3.51
2019-04-01T04:22:06.314Z,3.52
2019-04-01T04:23:06.308Z,3.50
2019-04-01T04:24:06.291Z,3.50
2019-04-01T04:25:06.282Z,3.50
2019-04-01T04:26:06.305Z,3.49
2019-04-01T04:27:10.744Z,3.50
2019-04-01T04:28:06.249Z,3.50
2019-04-01T04:29:06.240Z,3.48
2019-04-01T04:30:06.355Z,3.49
2019-04-01T04:31:06.216Z,3.49
2019-04-01T04:32:06.215Z,3.47
2019-04-01T04:33:06.194Z,3.47
2019-04-01T04:34:06.184Z,3.46
2019-04-01T04:35:06.173Z,3.46
2019-04-01T04:36:06.165Z,3.46
2019-04-01T04:37:06.161Z,3.45
2019-04-01T04:38:06.173Z,3.45
2019-04-01T04:39:06.144Z,3.44
2019-04-01T04:40:06.122Z,3.42
2019-04-01T04:41:06.112Z,3.43
2019-04-01T04:42:06.100Z,3.44
2019-04-01T04:43:06.089Z,3.43
2019-04-01T04:44:06.090Z,3.41
2019-04-01T04:45:06.091Z,3.42
2019-04-01T04:46:06.059Z,3.41
2019-04-01T04:47:06.050Z,3.42
2019-04-01T04:48:06.039Z,3.43
2019-04-01T04:49:06.029Z,3.40
2019-04-01T04:50:06.028Z,3.40
2019-04-01T04:51:06.021Z,3.40
2019-04-01T04:52:05.997Z,3.38
2019-04-01T04:53:05.986Z,3.38
2019-04-01T04:54:05.976Z,3.40
2019-04-01T04:55:05.965Z,3.39
2019-04-01T04:56:05.966Z,3.40
2019-04-01T04:57:05.944Z,3.39
2019-04-01T04:58:05.933Z,3.41
2019-04-01T04:59:05.924Z,3.38
2019-04-01T05:00:05.913Z,3.40
2019-04-01T05:01:05.902Z,3.38
2019-04-01T05:02:05.907Z,3.40
2019-04-01T05:03:05.881Z,3.41
2019-04-01T05:04:05.871Z,3.41
2019-04-01T05:05:05.860Z,3.42
2019-04-01T05:06:05.850Z,3.40
2019-04-01T05:07:05.848Z,3.40
2019-04-01T05:08:05.842Z,3.42
2019-04-01T05:09:05.831Z,3.42
2019-04-01T05:10:05.808Z,3.44
2019-04-01T05:11:05.798Z,3.44
2019-04-01T05:12:05.788Z,3.44
2019-04-01T05:13:05.776Z,3.46
2019-04-01T05:14:05.777Z,3.46
2019-04-01T05:15:05.755Z,3.48
2019-04-01T05:16:05.745Z,3.49
2019-04-01T05:17:05.734Z,3.51
2019-04-01T05:18:05.730Z,3.53
2019-04-01T05:19:05.715Z,3.55
2019-04-01T05:20:05.714Z,3.56
2019-04-01T05:21:05.693Z,3.59
2019-04-01T05:22:05.683Z,3.60
2019-04-01T05:23:05.672Z,3.63
2019-04-01T05:24:05.661Z,3.65
2019-04-01T05:25:05.650Z,3.69
2019-04-01T05:26:05.650Z,3.73
2019-04-01T05:27:05.630Z,3.77
2019-04-01T05:28:05.620Z,3.82
2019-04-01T05:29:05.608Z,3.86
2019-04-01T05:30:05.599Z,3.92
2019-04-01T05:31:05.591Z,3.97
2019-04-01T05:32:05.587Z,4.04
2019-04-01T05:33:05.573Z,4.10
2019-04-01T05:34:05.555Z,4.18
2019-04-01T05:35:05.544Z,4.27
2019-04-01T05:36:05.535Z,4.37
2019-04-01T05:37:08.774Z,4.47
2019-04-01T05:38:05.523Z,4.58
2019-04-01T05:39:05.504Z,4.70
2019-04-01T05:40:05.574Z,4.84
2019-04-01T05:41:05.483Z,4.95
2019-04-01T05:42:05.472Z,5.07
2019-04-01T05:43:05.467Z,5.19
2019-04-01T05:44:05.462Z,5.34
2019-04-01T05:45:05.441Z,5.53
2019-04-01T05:46:05.429Z,5.77
2019-04-01T05:47:05.423Z,6.06
2019-04-01T05:48:05.413Z,6.35
2019-04-01T05:49:05.400Z,6.66
2019-04-01T05:50:05.397Z,6.94
2019-04-01T05:51:05.376Z,7.19
2019-04-01T05:52:05.364Z,7.45
2019-04-01T05:53:05.355Z,7.69
2019-04-01T05:54:05.343Z,7.88
2019-04-01T05:55:08.788Z,8.07
2019-04-01T05:56:05.333Z,8.30
2019-04-01T05:57:05.312Z,8.50
2019-04-01T05:58:05.302Z,8.69
2019-04-01T05:59:05.291Z,8.88
2019-04-01T06:00:05.280Z,9.06
2019-04-01T06:01:05.269Z,9.21
2019-04-01T06:02:05.268Z,9.41
2019-04-01T06:03:05.247Z,9.48
2019-04-01T06:04:05.239Z,9.51
2019-04-01T06:05:05.226Z,9.55
2019-04-01T06:06:05.214Z,9.62
2019-04-01T06:07:05.205Z,9.78
2019-04-01T06:08:05.205Z,10.01
2019-04-01T06:09:05.183Z,10.13
2019-04-01T06:10:05.174Z,10.19
2019-04-01T06:11:05.162Z,10.30
2019-04-01T06:12:05.152Z,10.44
2019-04-01T06:13:05.144Z,10.64
2019-04-01T06:14:05.142Z,10.87
2019-04-01T06:15:05.120Z,11.02
2019-04-01T06:16:05.110Z,11.06
2019-04-01T06:17:05.099Z,11.03
2019-04-01T06:18:05.088Z,11.03
2019-04-01T06:19:06.145Z,11.27
2019-04-01T06:20:05.079Z,11.58
2019-04-01T06:21:05.059Z,11.78
2019-04-01T06:22:05.045Z,11.84
2019-04-01T06:23:05.033Z,11.77
2019-04-01T06:24:05.105Z,11.81
2019-04-01T06:25:05.013Z,11.97
2019-04-01T06:26:05.027Z,12.12
2019-04-01T06:27:04.991Z,12.27
2019-04-01T06:28:04.982Z,12.48
2019-04-01T06:29:04.969Z,12.72
2019-04-01T06:30:04.959Z,12.75
2019-04-01T06:31:04.950Z,12.90
2019-04-01T06:32:04.954Z,13.29
2019-04-01T06:33:04.927Z,13.62
2019-04-01T06:34:04.916Z,13.95
2019-04-01T06:35:04.908Z,14.33
2019-04-01T06:36:04.895Z,14.65
2019-04-01T06:37:04.883Z,15.10
2019-04-01T06:38:04.892Z,15.38
2019-04-01T06:39:04.863Z,15.57
2019-04-01T06:40:04.851Z,15.88
2019-04-01T06:41:04.840Z,16.17
2019-04-01T06:42:07.133Z,16.46
2019-04-01T06:43:04.819Z,16.77
2019-04-01T06:44:04.818Z,17.01
2019-04-01T06:45:04.797Z,17.23
2019-04-01T06:46:04.861Z,17.46
2019-04-01T06:47:04.776Z,17.65
2019-04-01T06:48:04.765Z,17.81
2019-04-01T06:49:04.755Z,17.89
2019-04-01T06:50:04.755Z,17.98
2019-04-01T06:51:04.735Z,18.06
2019-04-01T06:52:04.721Z,18.18
2019-04-01T06:53:04.711Z,18.29
2019-04-01T06:54:04.700Z,18.40
2019-04-01T06:55:04.688Z,18.54
2019-04-01T06:56:04.692Z,18.71
2019-04-01T06:57:04.667Z,18.87
2019-04-01T06:58:04.659Z,18.99
2019-04-01T06:59:04.647Z,19.13
2019-04-01T07:00:04.635Z,19.23
2019-04-01T07:01:04.626Z,19.31
2019-04-01T07:02:04.624Z,19.43
2019-04-01T07:03:04.602Z,19.55
2019-04-01T07:04:04.591Z,19.66
2019-04-01T07:05:04.580Z,19.79
2019-04-01T07:06:04.570Z,19.90
2019-04-01T07:07:17.799Z,20.05
2019-04-01T07:08:05.557Z,20.15
2019-04-01T07:09:04.539Z,20.22
2019-04-01T07:10:04.555Z,20.32
2019-04-01T07:11:04.514Z,20.38
2019-04-01T07:12:04.503Z,20.45
2019-04-01T07:13:04.495Z,20.51
2019-04-01T07:14:04.493Z,20.55
2019-04-01T07:15:04.471Z,20.66
2019-04-01T07:16:15.424Z,20.82
2019-04-01T07:17:05.475Z,21.00
2019-04-01T07:18:04.440Z,21.12
2019-04-01T07:19:04.430Z,21.26
2019-04-01T07:20:04.428Z,21.43
2019-04-01T07:21:04.408Z,21.55
2019-04-01T07:22:04.395Z,21.64
2019-04-01T07:23:04.385Z,21.70
2019-04-01T07:24:04.375Z,21.77
2019-04-01T07:25:04.364Z,21.87
2019-04-01T07:26:04.366Z,22.01
2019-04-01T07:27:07.836Z,22.13
2019-04-01T07:28:04.331Z,22.30
2019-04-01T07:29:04.319Z,22.50
2019-04-01T07:30:04.308Z,22.74
2019-04-01T07:31:04.300Z,22.96
2019-04-01T07:32:04.297Z,23.12
2019-04-01T07:33:04.278Z,23.17
2019-04-01T07:34:04.265Z,23.23
2019-04-01T07:35:04.254Z,23.34
2019-04-01T07:36:04.245Z,23.44
2019-04-01T07:37:04.235Z,23.50
2019-04-01T07:38:04.233Z,23.60
2019-04-01T07:39:04.214Z,23.68
2019-04-01T07:40:04.203Z,23.80
2019-04-01T07:41:04.195Z,23.92
2019-04-01T07:42:04.181Z,24.07
2019-04-01T07:43:04.169Z,24.24
2019-04-01T07:44:04.173Z,24.41
2019-04-01T07:45:04.150Z,24.60
2019-04-01T07:46:04.140Z,24.78
2019-04-01T07:47:04.126Z,24.97
2019-04-01T07:48:04.114Z,25.11
2019-04-01T07:49:04.123Z,25.22
2019-04-01T07:50:04.120Z,25.28
2019-04-01T07:51:07.117Z,25.34
2019-04-01T07:52:04.069Z,25.46
2019-04-01T07:53:04.058Z,25.62
2019-04-01T07:54:04.048Z,25.81
2019-04-01T07:55:04.040Z,25.99
2019-04-01T07:56:04.040Z,26.20
2019-04-01T07:57:04.014Z,26.36
2019-04-01T07:58:04.019Z,26.50
2019-04-01T07:59:03.993Z,26.65
2019-04-01T08:00:03.984Z,26.82
2019-04-01T08:01:03.971Z,26.99
2019-04-01T08:02:03.970Z,27.14
2019-04-01T08:03:03.950Z,27.28
2019-04-01T08:04:03.939Z,27.28
2019-04-01T08:05:03.930Z,27.26
2019-04-01T08:06:03.918Z,27.28
2019-04-01T08:07:03.907Z,27.35
2019-04-01T08:08:03.909Z,27.42
2019-04-01T08:09:03.888Z,27.46
2019-04-01T08:10:03.876Z,27.55
2019-04-01T08:11:03.864Z,27.61
2019-04-01T08:12:03.855Z,27.70
2019-04-01T08:13:03.845Z,27.78
2019-04-01T08:14:03.843Z,27.90
2019-04-01T08:15:03.822Z,28.04
2019-04-01T08:16:03.812Z,28.15
2019-04-01T08:17:03.799Z,28.21
2019-04-01T08:18:03.789Z,28.28
2019-04-01T08:19:03.779Z,28.33
2019-04-01T08:20:03.777Z,28.42
2019-04-01T08:21:03.757Z,28.50
2019-04-01T08:22:03.752Z,28.63
2019-04-01T08:23:03.733Z,28.79
2019-04-01T08:24:03.724Z,28.95
2019-04-01T08:25:03.713Z,29.15
2019-04-01T08:26:03.719Z,29.32
2019-04-01T08:27:07.169Z,29.41
2019-04-01T08:28:03.680Z,29.46
2019-04-01T08:29:03.669Z,29.50
2019-04-01T08:30:03.661Z,29.53
2019-04-01T08:31:03.647Z,29.55
2019-04-01T08:32:03.667Z,29.55
2019-04-01T08:33:03.653Z,29.53
2019-04-01T08:34:03.614Z,29.51
2019-04-01T08:35:03.606Z,29.49
2019-04-01T08:36:03.593Z,29.47
2019-04-01T08:37:03.582Z,29.49
2019-04-01T08:38:03.584Z,29.53
2019-04-01T08:39:03.560Z,29.60
2019-04-01T08:40:03.550Z,29.63
2019-04-01T08:41:03.539Z,29.65
2019-04-01T08:42:03.532Z,29.69
2019-04-01T08:43:03.518Z,29.65
2019-04-01T08:44:03.522Z,29.63
2019-04-01T08:45:03.496Z,29.52
2019-04-01T08:46:03.485Z,29.41
2019-04-01T08:47:03.475Z,29.36
2019-04-01T08:48:03.463Z,29.30
2019-04-01T08:49:03.453Z,29.23
2019-04-01T08:50:03.451Z,29.10
2019-04-01T08:51:03.429Z,28.98
2019-04-01T08:52:03.424Z,28.89
2019-04-01T08:53:03.407Z,28.70
2019-04-01T08:54:03.396Z,28.64
2019-04-01T08:55:03.389Z,28.54
2019-04-01T08:56:03.385Z,28.38
2019-04-01T08:57:03.364Z,28.20
2019-04-01T08:58:03.355Z,27.97
2019-04-01T08:59:03.347Z,27.82
2019-04-01T09:00:03.332Z,27.67
2019-04-01T09:01:03.318Z,27.49
2019-04-01T09:02:17.189Z,27.37
2019-04-01T09:03:04.319Z,27.26
2019-04-01T09:04:03.287Z,27.18
2019-04-01T09:05:03.278Z,27.04
2019-04-01T09:06:03.321Z,26.98
2019-04-01T09:07:03.251Z,26.90
2019-04-01T09:08:03.255Z,26.75
2019-04-01T09:09:03.229Z,26.62
2019-04-01T09:10:03.220Z,26.44
2019-04-01T09:11:03.209Z,26.23
2019-04-01T09:12:03.196Z,26.00
2019-04-01T09:13:03.186Z,25.75
2019-04-01T09:14:03.185Z,25.53
2019-04-01T09:15:03.163Z,25.36
2019-04-01T09:16:03.153Z,25.24
2019-04-01T09:17:03.142Z,25.15
2019-04-01T09:18:03.134Z,25.08
2019-04-01T09:19:03.119Z,24.98
2019-04-01T09:20:03.120Z,24.79
2019-04-01T09:21:03.096Z,24.55
2019-04-01T09:22:03.085Z,24.30
2019-04-01T09:23:03.079Z,24.13
2019-04-01T09:24:03.063Z,24.00
2019-04-01T09:25:03.051Z,23.91
2019-04-01T09:26:03.075Z,23.87
2019-04-01T09:27:03.028Z,23.82
2019-04-01T09:28:03.018Z,23.79
2019-04-01T09:29:03.008Z,23.74
2019-04-01T09:30:02.996Z,23.70
2019-04-01T09:31:02.984Z,23.59
2019-04-01T09:32:02.984Z,23.52
2019-04-01T09:33:02.970Z,23.40
2019-04-01T09:34:02.953Z,23.24
2019-04-01T09:35:02.943Z,23.14
2019-04-01T09:36:02.931Z,23.06
2019-04-01T09:37:02.919Z,22.96
2019-04-01T09:38:02.922Z,22.81
2019-04-01T09:39:02.896Z,22.68
2019-04-01T09:40:02.885Z,22.57
2019-04-01T09:41:02.875Z,22.48
2019-04-01T09:42:02.863Z,22.42
2019-04-01T09:43:02.851Z,22.38
2019-04-01T09:44:02.851Z,22.36
2019-04-01T09:45:02.830Z,22.33
2019-04-01T09:46:02.819Z,22.31
2019-04-01T09:47:02.814Z,22.33
2019-04-01T09:48:02.798Z,22.32
2019-04-01T09:49:02.785Z,22.28
2019-04-01T09:50:02.786Z,22.18
2019-04-01T09:51:02.766Z,22.09
2019-04-01T09:52:03.956Z,22.02
2019-04-01T09:53:02.743Z,21.99
2019-04-01T09:54:02.730Z,21.99
2019-04-01T09:55:05.981Z,22.02
2019-04-01T09:56:02.719Z,22.02
2019-04-01T09:57:16.812Z,22.03
2019-04-01T09:58:03.685Z,22.07
2019-04-01T09:59:02.675Z,22.14
2019-04-01T10:00:02.664Z,22.20
2019-04-01T10:01:02.654Z,22.24
2019-04-01T10:02:02.651Z,22.26
2019-04-01T10:03:02.631Z,22.30
2019-04-01T10:04:02.619Z,22.35
2019-04-01T10:05:02.609Z,22.38
2019-04-01T10:06:02.598Z,22.38
2019-04-01T10:07:02.586Z,22.40
2019-04-01T10:08:02.585Z,22.38
2019-04-01T10:09:02.567Z,22.42
2019-04-01T10:10:02.556Z,22.48
2019-04-01T10:11:02.543Z,22.54
2019-04-01T10:12:02.531Z,22.64
2019-04-01T10:13:02.521Z,22.77
2019-04-01T10:14:02.521Z,22.87
2019-04-01T10:15:02.501Z,22.94
2019-04-01T10:16:02.493Z,22.96
2019-04-01T10:17:02.479Z,22.97
2019-04-01T10:18:02.469Z,22.96
2019-04-01T10:19:02.457Z,23.00
2019-04-01T10:20:02.461Z,23.13
2019-04-01T10:21:02.436Z,23.28
2019-04-01T10:22:02.425Z,23.40
2019-04-01T10:23:02.416Z,23.51
2019-04-01T10:24:02.403Z,23.66
2019-04-01T10:25:02.393Z,23.75
2019-04-01T10:26:02.392Z,23.83
2019-04-01T10:27:02.371Z,23.94
2019-04-01T10:28:02.360Z,24.05
2019-04-01T10:29:02.350Z,24.06
2019-04-01T10:30:02.337Z,23.99
2019-04-01T10:31:02.326Z,23.89
2019-04-01T10:32:02.326Z,23.80
2019-04-01T10:33:02.738Z,23.74
2019-04-01T10:34:02.300Z,23.69
2019-04-01T10:35:02.286Z,23.61
2019-04-01T10:36:02.275Z,23.49
2019-04-01T10:37:02.266Z,23.16
2019-04-01T10:38:02.263Z,22.53
2019-04-01T10:39:02.242Z,21.72
2019-04-01T10:40:02.230Z,20.80
2019-04-01T10:41:02.231Z,19.94
2019-04-01T10:42:02.209Z,19.25
2019-04-01T10:43:02.198Z,18.73
2019-04-01T10:44:04.852Z,18.31
2019-04-01T10:45:02.183Z,17.93
2019-04-01T10:46:02.166Z,17.60
2019-04-01T10:47:02.154Z,17.32
2019-04-01T10:48:02.230Z,17.08
2019-04-01T10:49:02.136Z,16.88
2019-04-01T10:50:02.164Z,16.73
2019-04-01T10:51:02.119Z,16.65
2019-04-01T10:52:02.185Z,16.55
2019-04-01T10:53:02.133Z,16.50
2019-04-01T10:54:02.120Z,16.45
2019-04-01T10:55:02.171Z,16.38
2019-04-01T10:56:02.113Z,16.31
2019-04-01T10:57:02.084Z,16.23
2019-04-01T10:58:02.141Z,16.13
2019-04-01T10:59:02.109Z,16.06
2019-04-01T11:00:02.109Z,15.99
2019-04-01T11:01:02.093Z,15.91
2019-04-01T11:02:02.008Z,15.83
2019-04-01T11:03:05.825Z,15.74
2019-04-01T11:04:02.046Z,15.66
2019-04-01T11:05:02.052Z,15.57
2019-04-01T11:06:02.002Z,15.49
2019-04-01T11:07:01.983Z,15.40
2019-04-01T11:08:01.981Z,15.35
2019-04-01T11:09:01.962Z,15.31
2019-04-01T11:10:01.904Z,15.30
2019-04-01T11:11:01.894Z,15.28
2019-04-01T11:12:01.882Z,15.21
2019-04-01T11:13:01.871Z,15.18
2019-04-01T11:14:01.871Z,15.11
2019-04-01T11:15:01.850Z,15.07
2019-04-01T11:16:01.840Z,15.00
2019-04-01T11:17:04.222Z,14.96
2019-04-01T11:18:01.816Z,14.95
2019-04-01T11:19:01.805Z,14.95
2019-04-01T11:20:01.808Z,14.97
2019-04-01T11:21:01.785Z,14.95
2019-04-01T11:22:01.772Z,14.93
2019-04-01T11:23:02.689Z,14.89
2019-04-01T11:24:02.144Z,14.88
2019-04-01T11:25:01.747Z,14.87
2019-04-01T11:26:01.739Z,14.87
2019-04-01T11:27:01.717Z,14.86
2019-04-01T11:28:01.707Z,14.85
2019-04-01T11:29:01.703Z,14.84
2019-04-01T11:30:01.687Z,14.85
2019-04-01T11:31:01.678Z,14.85
2019-04-01T11:32:01.674Z,14.84
2019-04-01T11:33:01.706Z,14.85
2019-04-01T11:34:01.702Z,14.86
2019-04-01T11:35:01.683Z,14.89
2019-04-01T11:36:01.618Z,14.88
2019-04-01T11:37:01.649Z,14.90
2019-04-01T11:38:01.665Z,14.94
2019-04-01T11:39:01.608Z,14.96
2019-04-01T11:40:01.576Z,14.96
2019-04-01T11:41:01.591Z,14.97
2019-04-01T11:42:01.853Z,14.95
2019-04-01T11:43:04.823Z,14.95
2019-04-01T11:44:01.612Z,14.93
2019-04-01T11:45:01.915Z,14.91
2019-04-01T11:46:01.518Z,14.90
2019-04-01T11:47:01.544Z,14.87
2019-04-01T11:48:01.538Z,14.86
2019-04-01T11:49:01.475Z,14.84
2019-04-01T11:50:01.508Z,14.85
2019-04-01T11:51:01.473Z,14.84
2019-04-01T11:52:01.449Z,14.82
2019-04-01T11:53:01.434Z,14.82
2019-04-01T11:54:01.419Z,14.84
2019-04-01T11:55:01.432Z,14.86
2019-04-01T11:56:01.408Z,14.88
2019-04-01T11:57:01.388Z,14.90
2019-04-01T11:58:01.376Z,14.92
2019-04-01T11:59:01.375Z,14.95
2019-04-01T12:00:01.354Z,14.99
2019-04-01T12:01:01.344Z,15.03
2019-04-01T12:02:01.342Z,15.07
2019-04-01T12:03:01.324Z,15.08
2019-04-01T12:04:01.313Z,15.09
2019-04-01T12:05:01.299Z,15.10
2019-04-01T12:06:01.288Z,15.08
2019-04-01T12:07:02.199Z,15.09
2019-04-01T12:08:01.280Z,15.08
2019-04-01T12:09:01.255Z,15.07
2019-04-01T12:10:01.257Z,15.07
2019-04-01T12:11:01.233Z,15.05
2019-04-01T12:12:01.224Z,15.05
2019-04-01T12:13:01.210Z,15.04
2019-04-01T12:14:04.826Z,15.03
2019-04-01T12:15:01.189Z,15.06
2019-04-01T12:16:01.178Z,15.09
2019-04-01T12:17:01.168Z,15.13
2019-04-01T12:18:01.157Z,15.15
2019-04-01T12:19:01.145Z,15.18
2019-04-01T12:20:01.150Z,15.19
2019-04-01T12:21:01.123Z,15.23
2019-04-01T12:22:01.111Z,15.25
2019-04-01T12:23:01.182Z,15.29
2019-04-01T12:24:01.090Z,15.32
2019-04-01T12:25:01.082Z,15.35
2019-04-01T12:26:14.467Z,15.39
2019-04-01T12:27:02.059Z,15.41
2019-04-01T12:28:01.052Z,15.44
2019-04-01T12:29:01.039Z,15.46
2019-04-01T12:30:01.026Z,15.49
2019-04-01T12:31:01.015Z,15.50
2019-04-01T12:32:01.018Z,15.53
2019-04-01T12:33:00.994Z,15.56
2019-04-01T12:34:00.984Z,15.58
2019-04-01T12:35:00.972Z,15.61
2019-04-01T12:36:00.963Z,15.63
2019-04-01T12:37:00.955Z,15.64
2019-04-01T12:38:00.952Z,15.65
2019-04-01T12:39:00.935Z,15.62
2019-04-01T12:40:00.922Z,15.62
2019-04-01T12:41:00.911Z,15.62
2019-04-01T12:42:00.901Z,15.61
2019-04-01T12:43:00.894Z,15.62
2019-04-01T12:44:00.889Z,15.62
2019-04-01T12:45:00.865Z,15.63
2019-04-01T12:46:00.856Z,15.65
2019-04-01T12:47:00.847Z,15.67
2019-04-01T12:48:00.837Z,15.69
2019-04-01T12:49:00.823Z,15.71
2019-04-01T12:50:00.824Z,15.69
2019-04-01T12:51:00.802Z,15.69
2019-04-01T12:52:00.791Z,15.68
2019-04-01T12:53:00.780Z,15.72
2019-04-01T12:54:00.773Z,15.73
2019-04-01T12:55:01.189Z,15.74
2019-04-01T12:56:00.762Z,15.76
2019-04-01T12:57:00.738Z,15.79
2019-04-01T12:58:00.738Z,15.79
2019-04-01T12:59:00.717Z,15.81
2019-04-01T13:00:00.708Z,15.82
2019-04-01T13:01:01.182Z,15.84
2019-04-01T13:02:00.694Z,15.84
2019-04-01T13:03:00.673Z,15.87
2019-04-01T13:04:04.093Z,15.89